ENGS weather

Snåsa Airfield Grønøra
Snåsa, Nord-Trøndelag, Norway

Public forecast

Using degrees Celsius for public forecast. Weather courtesy of forecast.io.

Closest aviation weather report (METAR) to Snåsa Airfield Grønøra

Report is more than 2 hours old.

Closest report is Namsos Høknesøra Airport, 23.2 nm (43.0 km) NW. Retrieved 2020/07/07 19:50 UTC (4 hours ago):

ENNM 071950Z 25004KT 210V320 9999 VCSH FEW020TCU SCT035 BKN060 11/07 Q1005

Closest aviation forecast (TAF) to Snåsa Airfield Grønøra

Closest forecast is Trondheim Airport Værnes, 54.7 nm (101.3 km) SW. Retrieved 2020/07/07 18:57 UTC (5 hours ago):

TAF ENVA 071700Z 0718/0818 29010KT 9999 -SHRA FEW020TCU BKN040 TEMPO 0718/0818 SHRA BKN014 SCT020CB PROB40 0722/0808 21006KT